MMGM

General José María Yáñez International Airport

Guaymas, Mexico
TAF MMGM 210417Z 2106/2206 20008KT P6SM SCT100 FM211800 23012KT P6SM SCT020 BKN100 BKN250 FM220500 20007KT P6SM SCT100
Issued Valid From Valid To
Aug-21 @ 04:17 UTC
(13 hours ago)
Aug-21 @ 06:00 UTC
(12 hours ago)
Aug-22 @ 06:00 UTC
(in 12 hours)
Aug-21 @ 06:00 to Aug-21 @ 18:00
TAF MMGM 210417Z 2106/2206 20008KT P6SM SCT100
Wind Visibility Clouds
200° at 8 knots Greater than 6 miles
  • Scattered at 10,000' AGL
From Aug-21 @ 18:00 to Aug-22 @ 05:00
FM211800 23012KT P6SM SCT020 BKN100 BKN250
Wind Visibility Clouds
230° at 12 knots Greater than 6 miles
  • Scattered at 2,000' AGL
  • Broken at 10,000' AGL
  • Broken at 25,000' AGL
From Aug-22 @ 05:00 to Aug-22 @ 06:00
FM220500 20007KT P6SM SCT100
Wind Visibility Clouds
200° at 7 knots Greater than 6 miles
  • Scattered at 10,000' AGL
TAF MMGM 210417Z 2106/2206 20008KT P6SM SCT100 FM211800 23012KT P6SM SCT020 BKN100 BKN250 FM220500 20007KT P6SM SCT100
Issued Aug-21 @ 04:17 UTC
(13 hours ago)
Valid From Aug-21 @ 06:00 UTC
(12 hours ago)
Valid To Aug-22 @ 06:00 UTC
(in 12 hours)
Aug-21 @ 06:00 - Aug-21 @ 18:00
Wind Visibility
200° at 8 knots Greater than 6 miles
Clouds
  • Scattered at 10,000' AGL
From Aug-21 @ 18:00 - Aug-22 @ 05:00
Wind Visibility
230° at 12 knots Greater than 6 miles
Clouds
  • Scattered at 2,000' AGL
  • Broken at 10,000' AGL
  • Broken at 25,000' AGL
From Aug-22 @ 05:00 - Aug-22 @ 06:00
Wind Visibility
200° at 7 knots Greater than 6 miles
Clouds
  • Scattered at 10,000' AGL